X  Fermer Données météorologiques d'aviation de Metar     EIDW Dublin Airport
Température
13°C Température
10°C Point de rosée
82% Humidité



Vent
13 KM/H
8 MPH
4 M/S
7 KTS



250°
OSO
Conditions actuelles

Partiellement nuageux Partiellement nuageux
Pression 1012.92 (hPa) - 29.91 (inHg)
Visibilité 6.2 (mile) - 10 (km)
Aéroport
Code de l'aéroport EIDW

Emplacement: Dublin Airport
Distance: 17 (km)

Metar:
EIDW 010030Z 25007KT 190V280 9999 FEW017 BKN080 13/10 Q1013 NOSIG

Temps: 01-07-2022 01:30 IST